createdAt,value
2022-11-22T00:00:42.151Z,98776.56
2022-11-22T00:03:08.862Z,98780.06
2022-11-22T00:05:35.477Z,98791.56
2022-11-22T00:08:02.664Z,98799.59
2022-11-22T00:10:29.300Z,98803.47
2022-11-22T00:12:55.829Z,98795.31
2022-11-22T00:15:22.997Z,98790.47
2022-11-22T00:17:49.662Z,98789.53
2022-11-22T00:20:16.295Z,98784.31
2022-11-22T00:22:44.946Z,98773.84
2022-11-22T00:25:13.260Z,98769.19
2022-11-22T00:27:40.663Z,98771.31
2022-11-22T00:30:07.882Z,98753.75
2022-11-22T00:32:34.444Z,98768.28
2022-11-22T00:35:01.050Z,98764.31
2022-11-22T00:37:28.012Z,98761.56
2022-11-22T00:39:55.440Z,98760.41
2022-11-22T00:42:22.203Z,98749.69
2022-11-22T00:44:49.574Z,98750.94
2022-11-22T00:47:16.129Z,98742.81
2022-11-22T00:49:44.505Z,98737.28
2022-11-22T00:52:11.383Z,98734.47
2022-11-22T00:54:37.987Z,98736.63
2022-11-22T00:57:04.563Z,98737.19
2022-11-22T00:59:31.385Z,98747.28
2022-11-22T01:01:58.086Z,98744.91
2022-11-22T01:04:25.106Z,98733.56
2022-11-22T01:06:51.773Z,98732.06
2022-11-22T01:09:21.167Z,98733.19
2022-11-22T01:11:48.485Z,98720.81
2022-11-22T01:14:16.094Z,98714.84
2022-11-22T01:16:42.961Z,98712.13
2022-11-22T01:19:09.887Z,98721.59
2022-11-22T01:21:37.191Z,98714.59
2022-11-22T01:24:03.893Z,98712.84
2022-11-22T01:26:30.439Z,98710.97
2022-11-22T01:28:57.657Z,98698.72
2022-11-22T01:31:49.081Z,98705.25
2022-11-22T01:37:03.493Z,98692.59
2022-11-22T01:39:30.363Z,98684.41
2022-11-22T01:41:57.527Z,98685.09
2022-11-22T01:44:30.570Z,98686.66
2022-11-22T01:47:11.690Z,98693.78
2022-11-22T01:49:47.506Z,98699.81
2022-11-22T01:52:17.727Z,98693.69
2022-11-22T01:54:49.815Z,98689.88
2022-11-22T01:57:23.953Z,98689.59
2022-11-22T02:00:02.211Z,98689.50
2022-11-22T02:02:33.365Z,98697.81
2022-11-22T02:05:04.046Z,98696.25
2022-11-22T02:07:53.629Z,98700.09
2022-11-22T02:10:25.218Z,98699.63
2022-11-22T02:12:54.323Z,98716.03
2022-11-22T02:15:21.445Z,98690.66
2022-11-22T02:17:47.999Z,98687.59
2022-11-22T02:20:17.089Z,98683.28
2022-11-22T02:23:03.578Z,98677.59
2022-11-22T02:25:37.668Z,98674.13
2022-11-22T02:28:04.890Z,98671.47
2022-11-22T02:30:31.611Z,98670.50
2022-11-22T02:32:58.334Z,98664.97
2022-11-22T02:35:27.231Z,98663.16
2022-11-22T02:37:59.937Z,98663.56
2022-11-22T02:40:29.236Z,98654.91
2022-11-22T02:43:01.892Z,98652.19
2022-11-22T02:45:29.249Z,98645.94
2022-11-22T02:48:10.810Z,98653.56
2022-11-22T02:50:37.885Z,98670.06
2022-11-22T02:53:05.834Z,98664.09
2022-11-22T02:55:32.781Z,98656.06
2022-11-22T02:57:59.468Z,98661.34
2022-11-22T03:00:26.119Z,98656.63
2022-11-22T03:02:52.823Z,98651.91
2022-11-22T03:05:19.568Z,98656.22
2022-11-22T03:07:47.562Z,98650.38
2022-11-22T03:10:14.733Z,98646.03
2022-11-22T03:12:41.317Z,98641.94
2022-11-22T03:15:08.263Z,98653.03
2022-11-22T03:17:34.844Z,98640.53
2022-11-22T03:20:01.937Z,98640.22
2022-11-22T03:22:28.983Z,98640.25
2022-11-22T03:24:55.570Z,98647.75
2022-11-22T03:27:22.172Z,98632.91
2022-11-22T03:29:49.377Z,98622.59
2022-11-22T03:32:15.995Z,98627.72
2022-11-22T03:34:42.659Z,98624.38
2022-11-22T03:37:09.174Z,98630.91
2022-11-22T03:39:35.760Z,98628.63
2022-11-22T03:42:02.281Z,98621.41
2022-11-22T03:44:28.828Z,98629.28
2022-11-22T03:46:55.504Z,98633.88
2022-11-22T03:49:22.042Z,98634.44
2022-11-22T03:51:48.798Z,98634.16
2022-11-22T03:54:15.493Z,98619.16
2022-11-22T03:56:43.875Z,98611.41
2022-11-22T03:59:10.697Z,98610.25
2022-11-22T04:01:37.330Z,98611.81
2022-11-22T04:04:04.003Z,98614.69
2022-11-22T04:06:30.599Z,98617.91
2022-11-22T04:08:57.211Z,98610.78
2022-11-22T04:11:23.756Z,98609.72
2022-11-22T04:14:08.758Z,98593.50
2022-11-22T04:16:35.296Z,98608.28
2022-11-22T04:19:01.885Z,98614.16
2022-11-22T04:21:34.806Z,98616.22
2022-11-22T04:24:21.451Z,98614.56
2022-11-22T04:26:49.006Z,98617.34
2022-11-22T04:29:16.855Z,98615.56
2022-11-22T04:32:01.995Z,98616.13
2022-11-22T04:34:28.973Z,98611.09
2022-11-22T04:36:55.484Z,98617.50
2022-11-22T04:39:22.665Z,98613.88
2022-11-22T04:42:12.328Z,98615.00
2022-11-22T04:44:42.146Z,98608.47
2022-11-22T04:47:34.399Z,98610.13
2022-11-22T04:50:25.846Z,98628.31
2022-11-22T04:53:01.486Z,98625.25
2022-11-22T04:55:28.123Z,98615.25
2022-11-22T04:57:59.659Z,98622.91
2022-11-22T05:00:28.128Z,98620.00
2022-11-22T05:02:54.965Z,98612.22
2022-11-22T05:05:21.872Z,98609.59
2022-11-22T05:07:48.621Z,98614.44
2022-11-22T05:10:15.474Z,98625.41
2022-11-22T05:12:42.786Z,98615.78
2022-11-22T05:15:12.293Z,98608.47
2022-11-22T05:17:39.296Z,98606.84
2022-11-22T05:20:07.899Z,98618.91
2022-11-22T05:22:53.692Z,98605.56
2022-11-22T05:25:25.275Z,98606.66
2022-11-22T05:27:55.585Z,98610.84
2022-11-22T05:30:22.291Z,98618.19
2022-11-22T05:32:48.863Z,98612.09
2022-11-22T05:35:15.406Z,98617.75
2022-11-22T05:37:41.930Z,98621.09
2022-11-22T05:40:09.912Z,98625.53
2022-11-22T05:42:36.489Z,98630.00
2022-11-22T05:45:03.327Z,98630.28
2022-11-22T05:47:35.459Z,98635.84
2022-11-22T05:50:03.308Z,98632.19
2022-11-22T05:52:30.549Z,98634.31
2022-11-22T05:54:57.186Z,98625.53
2022-11-22T05:57:24.098Z,98632.59
2022-11-22T05:59:50.731Z,98635.81
2022-11-22T06:02:17.309Z,98636.22
2022-11-22T06:04:44.041Z,98633.03
2022-11-22T06:07:10.846Z,98632.19
2022-11-22T06:09:37.891Z,98639.00
2022-11-22T06:12:04.781Z,98640.38
2022-11-22T06:14:31.306Z,98646.41
2022-11-22T06:16:58.257Z,98644.56
2022-11-22T06:19:24.861Z,98639.13
2022-11-22T06:21:51.823Z,98634.34
2022-11-22T06:24:18.429Z,98640.41
2022-11-22T06:26:44.969Z,98637.06
2022-11-22T06:29:11.797Z,98641.22
2022-11-22T06:31:38.317Z,98652.31
2022-11-22T06:34:05.245Z,98642.94
2022-11-22T06:36:34.451Z,98652.22
2022-11-22T06:39:02.886Z,98650.91
2022-11-22T06:41:35.200Z,98658.34
2022-11-22T06:44:07.489Z,98654.81
2022-11-22T06:46:34.594Z,98654.25
2022-11-22T06:49:01.276Z,98655.00
2022-11-22T06:51:29.742Z,98658.88
2022-11-22T06:53:57.974Z,98653.22
2022-11-22T06:56:26.455Z,98644.03
2022-11-22T06:58:54.119Z,98640.06
2022-11-22T07:01:22.237Z,98643.50
2022-11-22T07:03:49.844Z,98644.13
2022-11-22T07:06:18.619Z,98641.69
2022-11-22T07:08:46.451Z,98648.41
2022-11-22T07:11:22.859Z,98652.31
2022-11-22T07:13:50.611Z,98649.63
2022-11-22T07:16:19.877Z,98651.19
2022-11-22T07:18:47.222Z,98653.19
2022-11-22T07:21:24.453Z,98652.22
2022-11-22T07:23:53.629Z,98658.88
2022-11-22T07:26:22.190Z,98658.69
2022-11-22T07:28:49.710Z,98679.72
2022-11-22T07:31:17.156Z,98679.81
2022-11-22T07:33:44.604Z,98687.19
2022-11-22T07:36:14.082Z,98685.38
2022-11-22T07:38:40.826Z,98695.78
2022-11-22T07:41:09.040Z,98708.38
2022-11-22T07:43:36.729Z,98716.22
2022-11-22T07:46:10.471Z,98718.19
2022-11-22T07:48:37.594Z,98712.41
2022-11-22T07:51:06.391Z,98712.16
2022-11-22T07:53:34.867Z,98716.13
2022-11-22T07:56:05.566Z,98722.81
2022-11-22T07:58:33.387Z,98718.56
2022-11-22T08:01:14.773Z,98716.72
2022-11-22T08:03:42.807Z,98712.97
2022-11-22T08:06:11.370Z,98713.41
2022-11-22T08:08:38.548Z,98710.47
2022-11-22T08:11:06.269Z,98709.28
2022-11-22T08:13:34.292Z,98711.34
2022-11-22T08:16:05.475Z,98713.00
2022-11-22T08:18:33.322Z,98711.69
2022-11-22T08:21:08.949Z,98705.59
2022-11-22T08:23:36.880Z,98704.22
2022-11-22T08:26:03.916Z,98719.19
2022-11-22T08:28:31.105Z,98717.81
2022-11-22T08:31:30.194Z,98725.69
2022-11-22T08:33:57.015Z,98728.22
2022-11-22T08:36:24.630Z,98733.66
2022-11-22T08:38:51.241Z,98738.63
2022-11-22T08:41:18.704Z,98737.16
2022-11-22T08:43:45.343Z,98740.91
2022-11-22T08:46:12.294Z,98735.66
2022-11-22T08:48:39.070Z,98737.78
2022-11-22T08:51:08.107Z,98736.22
2022-11-22T08:53:37.143Z,98739.56
2022-11-22T08:56:05.822Z,98736.31
2022-11-22T08:58:33.564Z,98751.63
2022-11-22T09:01:11.501Z,98757.56
2022-11-22T09:03:38.871Z,98754.91
2022-11-22T09:09:35.946Z,98762.94
2022-11-22T09:11:55.693Z,98758.75
2022-11-22T09:14:22.364Z,98767.16
2022-11-22T09:16:49.054Z,98763.63
2022-11-22T09:19:16.416Z,98767.66
2022-11-22T09:21:43.080Z,98774.63
2022-11-22T09:24:09.792Z,98774.59
2022-11-22T09:26:36.363Z,98783.13
2022-11-22T09:29:03.167Z,98775.41
2022-11-22T09:31:31.627Z,98775.97
2022-11-22T09:33:58.709Z,98790.13
2022-11-22T09:36:26.558Z,98782.88
2022-11-22T09:38:54.277Z,98786.81
2022-11-22T09:41:39.471Z,98789.69
2022-11-22T09:44:24.019Z,98794.34
2022-11-22T09:47:27.611Z,98790.81
2022-11-22T09:50:25.037Z,98795.59
2022-11-22T09:52:58.261Z,98787.34
2022-11-22T09:55:27.830Z,98789.72
2022-11-22T09:58:06.240Z,98789.47
2022-11-22T10:00:33.186Z,98793.44
2022-11-22T10:03:26.924Z,98803.81
2022-11-22T10:06:01.065Z,98798.44
2022-11-22T10:08:44.943Z,98798.94
2022-11-22T10:11:38.086Z,98797.75
2022-11-22T10:14:16.436Z,98802.16
2022-11-22T10:16:51.248Z,98799.84
2022-11-22T10:19:24.880Z,98802.97
2022-11-22T10:21:51.531Z,98800.22
2022-11-22T10:24:19.684Z,98810.03
2022-11-22T10:26:47.123Z,98804.72
2022-11-22T10:29:31.261Z,98803.28
2022-11-22T10:32:17.006Z,98797.44
2022-11-22T10:34:56.714Z,98799.47
2022-11-22T10:37:41.382Z,98789.13
2022-11-22T10:40:35.251Z,98794.53
2022-11-22T10:43:18.667Z,98802.75
2022-11-22T10:45:52.978Z,98803.44
2022-11-22T10:48:48.216Z,98797.88
2022-11-22T10:51:40.476Z,98795.44
2022-11-22T10:54:34.686Z,98798.22
2022-11-22T10:57:23.507Z,98793.66
2022-11-22T11:00:06.087Z,98791.44
2022-11-22T11:03:01.653Z,98791.34
2022-11-22T11:06:15.364Z,98780.09
2022-11-22T11:09:23.331Z,98786.31
2022-11-22T11:11:30.370Z,98780.59
2022-11-22T11:14:04.831Z,98782.22
2022-11-22T11:16:35.658Z,98776.72
2022-11-22T11:19:20.767Z,98765.13
2022-11-22T11:21:58.451Z,98771.75
2022-11-22T11:24:30.012Z,98776.56
2022-11-22T11:27:00.493Z,98775.25
2022-11-22T11:29:37.204Z,98764.78
2022-11-22T11:32:08.022Z,98770.44
2022-11-22T11:34:36.223Z,98771.25
2022-11-22T11:37:08.364Z,98764.94
2022-11-22T11:39:44.508Z,98756.97
2022-11-22T11:42:35.534Z,98758.63
2022-11-22T11:45:40.862Z,98746.97
2022-11-22T11:48:38.326Z,98748.81
2022-11-22T11:51:16.148Z,98745.19
2022-11-22T11:53:51.889Z,98746.00
2022-11-22T11:56:28.295Z,98729.25
2022-11-22T11:58:58.462Z,98744.69
2022-11-22T12:01:26.357Z,98743.50
2022-11-22T12:04:02.525Z,98742.22
2022-11-22T12:06:43.673Z,98758.50
2022-11-22T12:09:36.964Z,98758.13
2022-11-22T12:13:05.117Z,98772.41
2022-11-22T12:15:42.410Z,98774.28
2022-11-22T12:19:35.477Z,98772.75
2022-11-22T12:24:19.857Z,98762.88
2022-11-22T12:26:52.294Z,98775.53
2022-11-22T12:29:44.012Z,98773.97
2022-11-22T12:32:46.267Z,98781.19
2022-11-22T12:35:35.411Z,98776.78
2022-11-22T12:56:36.707Z,98759.63
2022-11-22T12:59:26.678Z,98775.41
2022-11-22T13:02:14.835Z,98773.41
2022-11-22T13:04:50.647Z,98774.16
2022-11-22T13:07:24.363Z,98779.38
2022-11-22T13:09:58.344Z,98790.47
2022-11-22T13:12:45.422Z,98787.53
2022-11-22T13:15:17.193Z,98785.34
2022-11-22T13:17:43.787Z,98784.88
2022-11-22T13:20:44.439Z,98787.34
2022-11-22T13:23:49.954Z,98775.16
2022-11-22T13:26:29.279Z,98772.34
2022-11-22T13:28:56.906Z,98779.22
2022-11-22T13:31:23.754Z,98766.13
2022-11-22T13:33:58.753Z,98771.44
2022-11-22T13:36:31.089Z,98771.72
2022-11-22T13:39:00.161Z,98760.63
2022-11-22T13:41:30.106Z,98763.25
2022-11-22T13:44:15.377Z,98763.19
2022-11-22T13:46:55.130Z,98758.69
2022-11-22T13:49:46.585Z,98760.97
2022-11-22T13:52:15.028Z,98764.44
2022-11-22T13:54:47.689Z,98766.75
2022-11-22T13:57:32.323Z,98757.22
2022-11-22T14:00:14.327Z,98758.66
2022-11-22T14:02:45.060Z,98766.22
2022-11-22T14:05:21.002Z,98764.97
2022-11-22T14:07:52.801Z,98760.63
2022-11-22T14:10:32.194Z,98754.13
2022-11-22T14:13:22.363Z,98751.88
2022-11-22T14:16:20.327Z,98745.50
2022-11-22T14:19:20.232Z,98748.31
2022-11-22T14:22:07.723Z,98747.00
2022-11-22T14:25:08.151Z,98757.13
2022-11-22T14:27:43.923Z,98759.97
2022-11-22T14:30:18.861Z,98766.59
2022-11-22T14:32:50.422Z,98756.63
2022-11-22T14:35:27.784Z,98766.38
2022-11-22T14:38:28.449Z,98783.22
2022-11-22T14:41:27.249Z,98783.50
2022-11-22T14:44:10.432Z,98776.06
2022-11-22T14:46:53.286Z,98784.03
2022-11-22T14:49:39.815Z,98780.03
2022-11-22T14:52:20.858Z,98786.38
2022-11-22T14:54:52.015Z,98791.53
2022-11-22T14:57:25.174Z,98785.03
2022-11-22T15:00:08.669Z,98789.53
2022-11-22T15:02:58.243Z,98789.19
2022-11-22T15:09:16.588Z,98794.84
2022-11-22T15:09:16.807Z,98798.38
2022-11-22T15:11:57.870Z,98802.63
2022-11-22T15:57:38.559Z,98833.09
2022-11-22T16:00:29.433Z,98829.16
2022-11-22T16:03:06.744Z,98829.78
2022-11-22T16:06:10.131Z,98827.94
2022-11-22T16:08:22.111Z,98830.09
2022-11-22T16:10:51.073Z,98843.53
2022-11-22T16:13:18.520Z,98827.41
2022-11-22T16:15:45.824Z,98833.50
2022-11-22T16:18:24.618Z,98843.00
2022-11-22T16:21:27.270Z,98847.72
2022-11-22T16:24:19.439Z,98844.31
2022-11-22T16:27:12.402Z,98837.97
2022-11-22T16:29:39.157Z,98846.66
2022-11-22T16:32:15.515Z,98857.50
2022-11-22T16:34:43.362Z,98854.22
2022-11-22T16:37:36.142Z,98846.81
2022-11-22T16:40:03.088Z,98851.25
2022-11-22T16:42:30.531Z,98845.28
2022-11-22T16:45:02.400Z,98839.34
2022-11-22T16:47:30.434Z,98848.56
2022-11-22T16:49:57.472Z,98840.38
2022-11-22T16:52:25.202Z,98848.69
2022-11-22T16:54:51.702Z,98843.13
2022-11-22T16:57:18.383Z,98845.25
2022-11-22T16:59:44.976Z,98846.31
2022-11-22T17:02:13.987Z,98843.38
2022-11-22T17:04:41.370Z,98857.69
2022-11-22T17:07:12.052Z,98856.56
2022-11-22T17:09:39.318Z,98851.00
2022-11-22T17:12:32.106Z,98855.38
2022-11-22T17:15:00.262Z,98866.41
2022-11-22T17:17:26.861Z,98874.63
2022-11-22T17:19:54.347Z,98859.66
2022-11-22T17:22:21.347Z,98872.84
2022-11-22T17:24:47.936Z,98872.91
2022-11-22T17:27:14.825Z,98873.25
2022-11-22T17:29:50.416Z,98869.31
2022-11-22T17:32:19.287Z,98871.91
2022-11-22T17:34:45.875Z,98865.84
2022-11-22T17:37:12.784Z,98874.69
2022-11-22T17:39:39.695Z,98877.41
2022-11-22T17:42:06.707Z,98868.25
2022-11-22T17:44:34.009Z,98880.06
2022-11-22T17:47:00.858Z,98878.72
2022-11-22T17:49:27.505Z,98880.72
2022-11-22T17:51:54.251Z,98891.31
2022-11-22T17:54:21.037Z,98887.66
2022-11-22T17:56:47.599Z,98882.94
2022-11-22T17:59:14.214Z,98888.31
2022-11-22T18:01:40.794Z,98882.78
2022-11-22T18:04:07.335Z,98889.81
2022-11-22T18:06:33.915Z,98882.56
2022-11-22T18:09:00.907Z,98888.47
2022-11-22T18:11:27.529Z,98884.66
2022-11-22T18:13:54.391Z,98887.84
2022-11-22T18:16:22.174Z,98889.16
2022-11-22T18:18:56.798Z,98881.84
2022-11-22T18:21:24.733Z,98885.38
2022-11-22T18:23:51.428Z,98886.59
2022-11-22T18:31:53.193Z,98877.03
2022-11-22T18:34:21.314Z,98874.34
2022-11-22T18:37:04.384Z,98884.53
2022-11-22T18:39:34.782Z,98883.28
2022-11-22T18:42:02.466Z,98885.44
2022-11-22T18:44:29.152Z,98888.56
2022-11-22T18:46:55.924Z,98886.84
2022-11-22T18:49:22.649Z,98895.06
2022-11-22T18:51:49.264Z,98889.28
2022-11-22T18:54:16.082Z,98884.34
2022-11-22T18:56:43.720Z,98892.47
2022-11-22T18:59:12.681Z,98899.56
2022-11-22T19:01:40.675Z,98889.63
2022-11-22T19:04:07.854Z,98893.94
2022-11-22T19:06:34.712Z,98891.84
2022-11-22T19:09:01.720Z,98896.06
2022-11-22T19:11:34.422Z,98885.19
2022-11-22T19:14:01.154Z,98887.38
2022-11-22T19:16:29.963Z,98894.41
2022-11-22T19:18:57.393Z,98897.56
2022-11-22T19:21:26.835Z,98894.47
2022-11-22T19:23:54.798Z,98892.91
2022-11-22T19:26:23.846Z,98889.75
2022-11-22T19:28:55.299Z,98892.53
2022-11-22T19:31:27.886Z,98899.28
2022-11-22T19:33:55.318Z,98895.75
2022-11-22T19:36:31.825Z,98896.78
2022-11-22T19:39:00.927Z,98902.59
2022-11-22T19:41:27.915Z,98893.75
2022-11-22T19:43:55.842Z,98889.47
2022-11-22T19:46:23.105Z,98882.13
2022-11-22T19:48:51.777Z,98884.47
2022-11-22T19:51:18.703Z,98890.38
2022-11-22T19:53:45.375Z,98894.75
2022-11-22T19:56:19.279Z,98882.25
2022-11-22T19:58:54.136Z,98889.66
2022-11-22T20:01:22.349Z,98888.06
2022-11-22T20:03:56.993Z,98882.13
2022-11-22T20:06:26.421Z,98882.88
2022-11-22T20:08:53.330Z,98883.75
2022-11-22T20:11:20.981Z,98882.97
2022-11-22T20:13:50.114Z,98895.94
2022-11-22T20:16:28.212Z,98894.19
2022-11-22T20:19:00.289Z,98890.91
2022-11-22T20:21:29.070Z,98877.44
2022-11-22T20:23:56.613Z,98876.03
2022-11-22T20:26:24.610Z,98877.09
2022-11-22T20:28:59.272Z,98880.19
2022-11-22T20:31:28.989Z,98877.56
2022-11-22T20:33:57.747Z,98882.06
2022-11-22T20:36:28.088Z,98882.59
2022-11-22T20:38:56.059Z,98885.00
2022-11-22T20:41:27.324Z,98890.50
2022-11-22T20:43:55.296Z,98897.16
2022-11-22T20:46:24.882Z,98891.75
2022-11-22T20:48:53.106Z,98903.63
2022-11-22T20:51:26.871Z,98891.69
2022-11-22T20:53:54.097Z,98907.03
2022-11-22T20:56:21.475Z,98896.63
2022-11-22T20:58:48.466Z,98896.97
2022-11-22T21:01:18.190Z,98900.38
2022-11-22T21:03:45.419Z,98893.78
2022-11-22T21:06:13.394Z,98896.09
2022-11-22T21:08:40.520Z,98903.03
2022-11-22T21:11:11.142Z,98897.44
2022-11-22T21:13:37.792Z,98891.72
2022-11-22T21:16:21.391Z,98890.22
2022-11-22T21:19:02.525Z,98889.94
2022-11-22T21:21:30.647Z,98890.25
2022-11-22T21:24:00.408Z,98891.59
2022-11-22T21:26:27.885Z,98904.66
2022-11-22T21:28:54.788Z,98898.53
2022-11-22T21:31:22.250Z,98885.09
2022-11-22T21:33:49.592Z,98904.06
2022-11-22T21:36:16.585Z,98895.94
2022-11-22T21:38:43.206Z,98892.63
2022-11-22T21:44:00.626Z,98905.81
2022-11-22T21:46:27.139Z,98907.66
2022-11-22T21:48:55.749Z,98917.03
2022-11-22T21:51:23.145Z,98911.59
2022-11-22T21:53:49.838Z,98911.09
2022-11-22T21:56:16.468Z,98916.59
2022-11-22T21:58:43.321Z,98910.09
2022-11-22T22:01:14.081Z,98919.25
2022-11-22T22:03:41.759Z,98921.47
2022-11-22T22:06:09.086Z,98914.38
2022-11-22T22:08:36.250Z,98909.69
2022-11-22T22:16:13.172Z,98923.53
2022-11-22T22:18:39.917Z,98921.81
2022-11-22T22:21:08.608Z,98912.94
2022-11-22T22:23:36.421Z,98919.59
2022-11-22T22:26:05.456Z,98922.41
2022-11-22T22:28:34.018Z,98921.75
2022-11-22T22:31:04.626Z,98922.38
2022-11-22T22:33:31.703Z,98925.31
2022-11-22T22:35:59.329Z,98920.00
2022-11-22T22:38:26.137Z,98926.22
2022-11-22T22:40:56.899Z,98925.22
2022-11-22T22:43:23.948Z,98920.38
2022-11-22T22:45:51.166Z,98922.38
2022-11-22T22:48:18.765Z,98929.16
2022-11-22T22:50:45.616Z,98921.63
2022-11-22T22:53:12.894Z,98931.34
2022-11-22T22:55:39.468Z,98930.78
2022-11-22T22:58:07.688Z,98933.31
2022-11-22T23:00:37.050Z,98932.59
2022-11-22T23:03:04.020Z,98927.78
2022-11-22T23:05:30.592Z,98925.88
2022-11-22T23:07:57.244Z,98937.00
2022-11-22T23:10:24.527Z,98931.44
2022-11-22T23:12:51.093Z,98937.44
2022-11-22T23:15:21.856Z,98941.78
2022-11-22T23:17:59.895Z,98938.94
2022-11-22T23:20:26.454Z,98937.22
2022-11-22T23:22:54.450Z,98932.91
2022-11-22T23:25:21.520Z,98931.84
2022-11-22T23:27:48.053Z,98939.28
2022-11-22T23:30:15.351Z,98936.53
2022-11-22T23:32:41.888Z,98929.75
2022-11-22T23:35:08.979Z,98937.66
2022-11-22T23:37:35.522Z,98942.47
2022-11-22T23:40:02.350Z,98935.56
2022-11-22T23:42:29.218Z,98929.34
2022-11-22T23:44:57.315Z,98929.22
2022-11-22T23:47:23.851Z,98922.69
2022-11-22T23:49:50.424Z,98919.34
2022-11-22T23:52:17.341Z,98924.16
2022-11-22T23:54:44.530Z,98926.97
2022-11-22T23:57:11.138Z,98930.00
2022-11-22T23:59:37.701Z,98921.84
